Time;durP1;ratioP1;P1;durP2;ratioP2;P2;SDS_P1;SDS_P2;PMS_P1;PMS_P2;Temp;Humidity;BMP_temperature;BMP_pressure;BME280_temperature;BME280_humidity;BME280_pressure;Samples;Min_cycle;Max_cycle;Signal;HPM_P1;HPM_P2
2022/04/11 00:00:46;;;;;;;3.80;2.20;;;;;;;;;;5039105;28;20493;-75
2022/04/11 00:03:11;;;;;;;3.92;2.08;;;;;;;;;;5040517;28;20018;-75
2022/04/11 00:05:37;;;;;;;3.90;2.05;;;;;;;;;;5039981;28;20513;-75
2022/04/11 00:08:02;;;;;;;4.40;2.08;;;;;;;;;;5039300;28;20029;-75
2022/04/11 00:10:28;;;;;;;3.30;2.17;;;;;;;;;;5038544;28;20029;-75
2022/04/11 00:13:06;;;;;;;5.75;2.22;;;;;;;;;;5038469;28;20025;-75
2022/04/11 00:15:33;;;;;;;11.15;2.47;;;;;;;;;;5038073;28;20122;-75
2022/04/11 00:18:01;;;;;;;3.72;2.17;;;;;;;;;;5036318;28;20021;-74
2022/04/11 00:20:26;;;;;;;4.63;2.10;;;;;;;;;;5036899;28;20021;-75
2022/04/11 00:22:51;;;;;;;4.80;1.95;;;;;;;;;;5036180;28;20032;-76
2022/04/11 00:25:16;;;;;;;3.40;1.92;;;;;;;;;;5035690;28;20431;-76
2022/04/11 00:27:42;;;;;;;3.83;2.20;;;;;;;;;;5036356;28;20038;-75
2022/04/11 00:30:07;;;;;;;6.35;2.38;;;;;;;;;;5035064;28;20372;-75
2022/04/11 00:32:39;;;;;;;6.75;2.20;;;;;;;;;;5034697;28;20072;-76
2022/04/11 00:35:05;;;;;;;5.35;2.05;;;;;;;;;;5035049;28;20505;-75
2022/04/11 00:37:30;;;;;;;4.85;1.80;;;;;;;;;;5036098;28;20033;-76
2022/04/11 00:39:55;;;;;;;6.53;2.00;;;;;;;;;;5035707;28;20126;-76
2022/04/11 00:42:20;;;;;;;3.60;1.90;;;;;;;;;;5036367;28;20032;-76
2022/04/11 00:44:45;;;;;;;4.00;2.08;;;;;;;;;;5035359;28;20021;-75
2022/04/11 00:47:11;;;;;;;5.97;1.73;;;;;;;;;;5035837;28;20035;-75
2022/04/11 00:49:36;;;;;;;5.22;1.88;;;;;;;;;;5035721;28;20049;-76
2022/04/11 00:52:01;;;;;;;5.07;1.73;;;;;;;;;;5034287;28;20556;-76
2022/04/11 00:54:27;;;;;;;4.53;1.90;;;;;;;;;;5035782;28;20025;-76
2022/04/11 00:56:55;;;;;;;6.65;2.30;;;;;;;;;;5035503;28;20483;-75
2022/04/11 00:59:20;;;;;;;3.80;2.00;;;;;;;;;;5035310;28;20087;-75
2022/04/11 01:01:47;;;;;;;4.40;2.00;;;;;;;;;;5035979;28;20424;-75
2022/04/11 01:04:23;;;;;;;3.42;1.85;;;;;;;;;;5036372;28;20052;-75
2022/04/11 01:06:55;;;;;;;5.35;1.90;;;;;;;;;;5034214;28;20025;-75
2022/04/11 01:09:20;;;;;;;4.10;2.00;;;;;;;;;;5035688;28;20026;-75
2022/04/11 01:11:46;;;;;;;3.33;1.90;;;;;;;;;;5034587;28;20029;-75
2022/04/11 01:14:11;;;;;;;5.93;2.15;;;;;;;;;;5035685;28;20490;-76
2022/04/11 01:16:36;;;;;;;4.72;1.90;;;;;;;;;;5035655;28;20104;-75
2022/04/11 01:19:02;;;;;;;4.65;2.22;;;;;;;;;;5035327;28;20025;-76
2022/04/11 01:21:30;;;;;;;5.85;2.03;;;;;;;;;;5035614;28;20029;-75
2022/04/11 01:23:56;;;;;;;4.18;1.85;;;;;;;;;;5038385;28;20022;-75
2022/04/11 01:26:22;;;;;;;4.40;2.10;;;;;;;;;;5038588;28;20033;-75
2022/04/11 01:28:48;;;;;;;5.95;2.30;;;;;;;;;;5039167;28;20536;-76
2022/04/11 01:31:14;;;;;;;8.95;2.20;;;;;;;;;;5038797;28;20037;-75
2022/04/11 01:33:40;;;;;;;3.80;2.30;;;;;;;;;;5039095;28;20017;-75
2022/04/11 01:36:05;;;;;;;5.78;2.03;;;;;;;;;;5039544;28;20099;-75
2022/04/11 01:38:30;;;;;;;6.25;2.40;;;;;;;;;;5038958;28;20025;-75
2022/04/11 01:40:56;;;;;;;7.85;2.20;;;;;;;;;;5039577;28;20036;-76
2022/04/11 01:43:23;;;;;;;4.35;2.25;;;;;;;;;;5038643;28;20029;-75
2022/04/11 01:45:48;;;;;;;5.68;2.05;;;;;;;;;;5037081;28;20387;-75
2022/04/11 01:48:14;;;;;;;4.20;2.25;;;;;;;;;;5038404;28;20042;-75
2022/04/11 01:50:40;;;;;;;5.32;2.22;;;;;;;;;;5038898;28;20061;-75
2022/04/11 01:53:15;;;;;;;6.82;2.60;;;;;;;;;;5037279;28;20025;-75
2022/04/11 01:55:40;;;;;;;4.28;1.77;;;;;;;;;;5038591;28;20486;-75
2022/04/11 01:58:07;;;;;;;3.35;2.10;;;;;;;;;;5038724;28;20029;-76
2022/04/11 02:00:33;;;;;;;3.83;2.13;;;;;;;;;;5038947;28;20053;-75
2022/04/11 02:02:59;;;;;;;4.20;2.13;;;;;;;;;;5038543;28;20475;-75
2022/04/11 02:05:28;;;;;;;6.63;2.28;;;;;;;;;;5038886;28;20017;-75
2022/04/11 02:07:54;;;;;;;4.63;2.08;;;;;;;;;;5038520;28;20053;-75
2022/04/11 02:10:20;;;;;;;3.58;2.15;;;;;;;;;;5039112;28;20100;-75
2022/04/11 02:12:47;;;;;;;3.95;1.88;;;;;;;;;;5038710;28;20084;-75
2022/04/11 02:15:12;;;;;;;4.85;2.00;;;;;;;;;;5038841;28;20029;-75
2022/04/11 02:17:38;;;;;;;3.88;1.95;;;;;;;;;;5037864;28;20459;-75
2022/04/11 02:20:05;;;;;;;4.28;2.00;;;;;;;;;;5038635;28;20041;-75
2022/04/11 02:22:42;;;;;;;4.07;2.28;;;;;;;;;;5037880;28;20478;-75
2022/04/11 02:25:08;;;;;;;3.60;2.00;;;;;;;;;;5037394;28;20021;-75
2022/04/11 02:27:33;;;;;;;5.05;2.05;;;;;;;;;;5038682;28;20538;-76
2022/04/11 02:29:58;;;;;;;3.80;2.00;;;;;;;;;;5037862;28;20447;-75
2022/04/11 02:32:23;;;;;;;6.20;2.00;;;;;;;;;;5037617;28;20021;-76
2022/04/11 02:34:49;;;;;;;4.15;2.05;;;;;;;;;;5038841;28;20021;-75
2022/04/11 02:37:14;;;;;;;8.45;2.13;;;;;;;;;;5038736;28;20029;-76
2022/04/11 02:39:39;;;;;;;3.75;1.95;;;;;;;;;;5039504;28;20061;-75
2022/04/11 02:42:05;;;;;;;4.47;2.33;;;;;;;;;;5038792;28;20072;-75
2022/04/11 02:44:30;;;;;;;3.58;2.17;;;;;;;;;;5039053;28;20029;-75
2022/04/11 02:46:55;;;;;;;5.03;2.35;;;;;;;;;;5039464;28;20029;-77
2022/04/11 02:49:20;;;;;;;4.28;2.25;;;;;;;;;;5040599;28;20079;-76
2022/04/11 02:51:46;;;;;;;4.78;2.45;;;;;;;;;;5043726;28;20030;-76
2022/04/11 02:54:11;;;;;;;3.38;2.22;;;;;;;;;;5045421;28;20028;-76
2022/04/11 02:56:36;;;;;;;5.53;2.10;;;;;;;;;;5045486;28;20033;-76
2022/04/11 02:59:02;;;;;;;3.53;1.90;;;;;;;;;;5045348;28;20036;-75
2022/04/11 03:01:27;;;;;;;5.03;2.60;;;;;;;;;;5042903;28;20104;-76
2022/04/11 03:03:52;;;;;;;6.63;2.13;;;;;;;;;;5040313;28;20026;-77
2022/04/11 03:06:18;;;;;;;5.18;2.20;;;;;;;;;;5038778;28;20026;-75
2022/04/11 03:08:43;;;;;;;7.05;2.10;;;;;;;;;;5039594;28;20459;-76
2022/04/11 03:11:08;;;;;;;3.40;1.85;;;;;;;;;;5038981;28;20021;-75
2022/04/11 03:13:33;;;;;;;3.65;2.00;;;;;;;;;;5039382;28;20040;-75
2022/04/11 03:15:59;;;;;;;4.03;2.25;;;;;;;;;;5039108;28;20021;-76
2022/04/11 03:18:24;;;;;;;4.43;1.90;;;;;;;;;;5038839;28;20041;-76
2022/04/11 03:20:49;;;;;;;3.88;2.15;;;;;;;;;;5038690;28;20470;-75
2022/04/11 03:23:15;;;;;;;3.15;2.20;;;;;;;;;;5036662;28;20068;-76
2022/04/11 03:25:41;;;;;;;4.07;2.17;;;;;;;;;;5037296;28;20070;-75
2022/04/11 03:28:07;;;;;;;6.50;2.33;;;;;;;;;;5036861;28;20374;-75
2022/04/11 03:30:32;;;;;;;7.35;2.17;;;;;;;;;;5037149;28;20024;-75
2022/04/11 03:32:57;;;;;;;4.75;2.17;;;;;;;;;;5037430;28;20474;-75
2022/04/11 03:35:23;;;;;;;4.47;2.00;;;;;;;;;;5037438;28;20082;-76
2022/04/11 03:37:48;;;;;;;3.58;1.83;;;;;;;;;;5037363;28;20104;-76
2022/04/11 03:40:13;;;;;;;4.45;2.15;;;;;;;;;;5035569;28;20029;-76
2022/04/11 03:42:39;;;;;;;4.97;2.05;;;;;;;;;;5036473;28;20026;-75
2022/04/11 03:45:05;;;;;;;4.28;2.17;;;;;;;;;;5035961;28;20025;-75
2022/04/11 03:47:30;;;;;;;6.75;2.30;;;;;;;;;;5036119;28;20025;-75
2022/04/11 03:49:55;;;;;;;3.67;1.92;;;;;;;;;;5036488;28;20025;-75
2022/04/11 03:52:21;;;;;;;8.00;2.80;;;;;;;;;;5034629;28;20368;-75
2022/04/11 03:54:46;;;;;;;6.18;2.20;;;;;;;;;;5035746;28;20036;-75
2022/04/11 03:57:11;;;;;;;6.05;2.17;;;;;;;;;;5034655;28;20075;-75
2022/04/11 03:59:38;;;;;;;4.70;2.03;;;;;;;;;;5035277;28;20112;-75
2022/04/11 04:02:04;;;;;;;8.35;2.20;;;;;;;;;;5035346;28;20458;-76
2022/04/11 04:04:29;;;;;;;3.65;1.80;;;;;;;;;;5034788;28;20018;-76
2022/04/11 04:06:54;;;;;;;4.82;2.08;;;;;;;;;;5034866;28;20029;-76
2022/04/11 04:09:19;;;;;;;7.65;2.40;;;;;;;;;;5033933;28;20029;-76
2022/04/11 04:11:44;;;;;;;5.35;2.42;;;;;;;;;;5034731;28;20478;-76
2022/04/11 04:14:10;;;;;;;3.92;2.30;;;;;;;;;;5034920;28;20461;-75
2022/04/11 04:16:37;;;;;;;3.95;2.22;;;;;;;;;;5034713;28;20083;-75
2022/04/11 04:19:02;;;;;;;5.72;2.15;;;;;;;;;;5038026;28;20017;-75
2022/04/11 04:21:28;;;;;;;7.03;2.78;;;;;;;;;;5047004;28;20028;-74
2022/04/11 04:23:53;;;;;;;4.85;2.08;;;;;;;;;;5049120;28;20028;-74
2022/04/11 04:26:18;;;;;;;8.77;2.70;;;;;;;;;;5046577;28;20032;-73
2022/04/11 04:28:43;;;;;;;6.35;2.35;;;;;;;;;;5049925;28;20089;-75
2022/04/11 04:31:09;;;;;;;6.55;2.35;;;;;;;;;;5049315;28;20032;-75
2022/04/11 04:33:34;;;;;;;3.17;2.05;;;;;;;;;;5048995;28;20022;-74
2022/04/11 04:35:59;;;;;;;6.05;3.17;;;;;;;;;;5049764;28;20056;-76
2022/04/11 04:38:24;;;;;;;8.27;3.00;;;;;;;;;;5050134;28;20073;-74
2022/04/11 04:40:50;;;;;;;6.72;2.67;;;;;;;;;;5049614;28;20037;-75
2022/04/11 04:43:15;;;;;;;5.72;2.95;;;;;;;;;;5049981;28;20025;-75
2022/04/11 04:45:40;;;;;;;7.55;2.90;;;;;;;;;;5050599;28;20025;-74
2022/04/11 04:48:06;;;;;;;9.15;3.03;;;;;;;;;;5043761;28;20034;-76
2022/04/11 04:50:32;;;;;;;5.18;2.38;;;;;;;;;;5037368;28;20025;-75
2022/04/11 04:52:58;;;;;;;4.57;2.53;;;;;;;;;;5037039;28;20548;-76
2022/04/11 04:55:24;;;;;;;17.88;3.38;;;;;;;;;;5037382;28;20071;-76
2022/04/11 04:57:49;;;;;;;5.05;2.90;;;;;;;;;;5039775;28;20026;-75
2022/04/11 05:00:14;;;;;;;4.95;2.58;;;;;;;;;;5040679;28;20033;-76
2022/04/11 05:02:40;;;;;;;6.88;2.50;;;;;;;;;;5042158;28;20033;-77
2022/04/11 05:05:07;;;;;;;6.70;2.45;;;;;;;;;;5040663;28;20075;-75
2022/04/11 05:07:32;;;;;;;7.38;2.83;;;;;;;;;;5039259;28;20061;-76
2022/04/11 05:09:57;;;;;;;5.10;2.63;;;;;;;;;;5040505;28;20033;-76
2022/04/11 05:12:22;;;;;;;5.70;2.42;;;;;;;;;;5040524;28;20053;-76
2022/04/11 05:14:48;;;;;;;3.85;2.20;;;;;;;;;;5040633;28;20029;-75
2022/04/11 05:17:13;;;;;;;5.80;2.08;;;;;;;;;;5040214;28;20084;-75
2022/04/11 05:19:38;;;;;;;8.30;2.50;;;;;;;;;;5040575;28;20029;-75
2022/04/11 05:22:06;;;;;;;5.13;2.72;;;;;;;;;;5039417;28;20025;-76
2022/04/11 05:24:32;;;;;;;7.68;2.90;;;;;;;;;;5040085;28;20451;-75
2022/04/11 05:26:57;;;;;;;4.90;2.28;;;;;;;;;;5040846;28;20164;-75
2022/04/11 05:29:22;;;;;;;7.00;2.50;;;;;;;;;;5042835;28;20039;-75
2022/04/11 05:31:48;;;;;;;7.65;2.30;;;;;;;;;;5044295;28;20057;-74
2022/04/11 05:34:13;;;;;;;4.50;1.92;;;;;;;;;;5045082;28;20056;-75
2022/04/11 05:36:38;;;;;;;7.05;2.38;;;;;;;;;;5046799;28;20025;-76
2022/04/11 05:39:03;;;;;;;4.50;2.35;;;;;;;;;;5045226;28;20048;-75
2022/04/11 05:41:29;;;;;;;4.10;2.20;;;;;;;;;;5043338;28;20029;-75
2022/04/11 05:43:54;;;;;;;4.63;2.30;;;;;;;;;;5042843;28;20086;-75
2022/04/11 05:46:19;;;;;;;7.40;2.63;;;;;;;;;;5041149;28;20482;-75
2022/04/11 05:48:45;;;;;;;3.95;2.45;;;;;;;;;;5040282;28;20049;-75
2022/04/11 05:51:10;;;;;;;9.35;2.95;;;;;;;;;;5040896;28;20076;-74
2022/04/11 05:53:35;;;;;;;4.30;2.53;;;;;;;;;;5039813;28;20033;-76
2022/04/11 05:56:01;;;;;;;6.43;2.70;;;;;;;;;;5039794;28;20041;-76
2022/04/11 05:58:26;;;;;;;4.30;2.42;;;;;;;;;;5039643;28;20021;-76
2022/04/11 06:00:51;;;;;;;7.53;2.70;;;;;;;;;;5039711;28;20483;-75
2022/04/11 06:03:16;;;;;;;5.25;2.15;;;;;;;;;;5039425;28;20519;-75
2022/04/11 06:05:42;;;;;;;4.67;2.10;;;;;;;;;;5039890;28;20033;-75
2022/04/11 06:08:07;;;;;;;8.18;2.92;;;;;;;;;;5038440;28;20760;-75
2022/04/11 06:10:33;;;;;;;6.38;2.03;;;;;;;;;;5038822;28;20068;-75
2022/04/11 06:12:58;;;;;;;4.97;2.28;;;;;;;;;;5038257;28;20021;-75
2022/04/11 06:15:23;;;;;;;5.38;2.53;;;;;;;;;;5038635;28;20029;-76
2022/04/11 06:17:48;;;;;;;3.80;2.10;;;;;;;;;;5038652;28;20028;-76
2022/04/11 06:20:14;;;;;;;6.15;2.13;;;;;;;;;;5038597;28;20048;-75
2022/04/11 06:22:40;;;;;;;5.03;2.00;;;;;;;;;;5038351;28;20025;-76
2022/04/11 06:25:08;;;;;;;5.38;2.28;;;;;;;;;;5039192;28;20071;-76
2022/04/11 06:27:33;;;;;;;4.95;2.08;;;;;;;;;;5039115;28;20140;-75
2022/04/11 06:29:58;;;;;;;6.28;2.25;;;;;;;;;;5038521;28;20025;-77
2022/04/11 06:32:26;;;;;;;5.43;2.13;;;;;;;;;;5039721;28;20021;-75
2022/04/11 06:34:51;;;;;;;3.33;1.73;;;;;;;;;;5039111;28;20379;-75
2022/04/11 06:37:16;;;;;;;4.63;1.77;;;;;;;;;;5038830;28;20029;-75
2022/04/11 06:39:42;;;;;;;4.57;1.75;;;;;;;;;;5038677;28;20269;-76
2022/04/11 06:42:08;;;;;;;3.72;2.15;;;;;;;;;;5038352;28;20453;-76
2022/04/11 06:44:34;;;;;;;4.68;2.30;;;;;;;;;;5039082;28;20021;-76
2022/04/11 06:46:59;;;;;;;6.45;2.17;;;;;;;;;;5037505;28;20486;-75
2022/04/11 06:49:25;;;;;;;3.00;1.98;;;;;;;;;;5039185;28;20104;-75
2022/04/11 06:51:50;;;;;;;4.68;2.35;;;;;;;;;;5039612;28;20428;-76
2022/04/11 06:54:15;;;;;;;7.53;2.67;;;;;;;;;;5038020;28;20029;-75
2022/04/11 06:56:40;;;;;;;5.40;2.10;;;;;;;;;;5040123;28;20029;-76
2022/04/11 06:59:05;;;;;;;4.10;2.10;;;;;;;;;;5038704;28;20109;-76
2022/04/11 07:01:31;;;;;;;8.93;2.40;;;;;;;;;;5036145;28;20342;-77
2022/04/11 07:03:57;;;;;;;6.03;2.70;;;;;;;;;;5036216;28;20251;-78
2022/04/11 07:06:22;;;;;;;3.70;2.35;;;;;;;;;;5037038;28;20255;-75
2022/04/11 07:08:47;;;;;;;4.95;2.30;;;;;;;;;;5035861;28;20029;-74
2022/04/11 07:11:12;;;;;;;8.50;2.50;;;;;;;;;;5036079;28;20079;-74
2022/04/11 07:13:38;;;;;;;6.87;2.47;;;;;;;;;;5036503;28;20103;-75
2022/04/11 07:16:03;;;;;;;4.20;2.10;;;;;;;;;;5035684;28;20290;-75
2022/04/11 07:18:29;;;;;;;7.10;2.40;;;;;;;;;;5036854;28;20018;-76
2022/04/11 07:20:54;;;;;;;4.60;2.03;;;;;;;;;;5038029;28;20033;-76
2022/04/11 07:23:20;;;;;;;4.30;2.17;;;;;;;;;;5036456;28;20026;-75
2022/04/11 07:25:45;;;;;;;5.10;2.33;;;;;;;;;;5038909;28;20079;-75
2022/04/11 07:28:10;;;;;;;4.55;2.10;;;;;;;;;;5039280;28;20036;-75
2022/04/11 07:30:36;;;;;;;2.25;1.73;;;;;;;;;;5038524;28;20060;-74
2022/04/11 07:33:01;;;;;;;6.78;2.08;;;;;;;;;;5038885;28;20025;-76
2022/04/11 07:35:27;;;;;;;3.13;1.98;;;;;;;;;;5039005;28;20386;-75
2022/04/11 07:37:52;;;;;;;5.30;1.85;;;;;;;;;;5038146;28;20026;-76
2022/04/11 07:40:17;;;;;;;5.60;2.33;;;;;;;;;;5037858;28;20029;-75
2022/04/11 07:42:42;;;;;;;4.05;2.00;;;;;;;;;;5038766;28;20394;-76
2022/04/11 07:45:08;;;;;;;5.78;2.00;;;;;;;;;;5038446;28;20025;-75
2022/04/11 07:47:34;;;;;;;5.35;1.90;;;;;;;;;;5040735;28;20091;-76
2022/04/11 07:49:59;;;;;;;4.25;2.10;;;;;;;;;;5039137;28;20034;-76
2022/04/11 07:52:25;;;;;;;5.85;2.20;;;;;;;;;;5036713;28;20022;-75
2022/04/11 07:54:51;;;;;;;4.50;2.03;;;;;;;;;;5037048;28;20474;-75
2022/04/11 07:57:17;;;;;;;6.35;2.05;;;;;;;;;;5036812;28;20070;-75
2022/04/11 07:59:42;;;;;;;4.20;2.00;;;;;;;;;;5037005;28;20022;-75
2022/04/11 08:02:07;;;;;;;5.07;2.25;;;;;;;;;;5038255;28;20069;-76
2022/04/11 08:04:33;;;;;;;3.75;1.67;;;;;;;;;;5038377;28;20025;-76
2022/04/11 08:06:59;;;;;;;3.53;1.45;;;;;;;;;;5036774;28;20081;-75
2022/04/11 08:09:24;;;;;;;4.00;1.70;;;;;;;;;;5037424;28;20033;-75
2022/04/11 08:11:49;;;;;;;6.35;1.50;;;;;;;;;;5036304;28;20088;-76
2022/04/11 08:14:16;;;;;;;2.35;1.27;;;;;;;;;;5035193;28;20112;-76
2022/04/11 08:16:41;;;;;;;2.22;1.20;;;;;;;;;;5037015;28;20033;-76
2022/04/11 08:19:06;;;;;;;3.03;1.30;;;;;;;;;;5036977;28;20032;-75
2022/04/11 08:21:32;;;;;;;3.80;1.40;;;;;;;;;;5037797;28;20510;-76
2022/04/11 08:23:57;;;;;;;1.83;0.90;;;;;;;;;;5036824;28;20021;-76
2022/04/11 08:26:22;;;;;;;7.88;0.93;;;;;;;;;;5038570;28;20037;-75
2022/04/11 08:28:47;;;;;;;1.67;0.85;;;;;;;;;;5038044;28;20040;-75
2022/04/11 08:31:13;;;;;;;4.25;0.88;;;;;;;;;;5037710;28;20076;-75
2022/04/11 08:33:38;;;;;;;4.97;0.90;;;;;;;;;;5041700;28;20386;-76
2022/04/11 08:36:03;;;;;;;2.03;0.70;;;;;;;;;;5042323;28;20061;-76
2022/04/11 08:38:29;;;;;;;0.45;0.40;;;;;;;;;;5042222;28;20031;-76
2022/04/11 08:40:55;;;;;;;1.77;0.98;;;;;;;;;;5041918;28;20112;-76
2022/04/11 08:43:22;;;;;;;3.10;0.50;;;;;;;;;;5042229;28;20032;-75
2022/04/11 08:45:49;;;;;;;3.75;1.23;;;;;;;;;;5042475;28;20022;-75
2022/04/11 08:48:14;;;;;;;4.85;0.85;;;;;;;;;;5041398;28;20044;-77
2022/04/11 08:50:40;;;;;;;3.40;0.90;;;;;;;;;;5041281;28;20029;-75
2022/04/11 08:53:05;;;;;;;3.97;0.77;;;;;;;;;;5040672;28;20029;-75
2022/04/11 08:55:30;;;;;;;2.80;0.88;;;;;;;;;;5042061;28;20041;-76
2022/04/11 08:57:57;;;;;;;5.45;1.02;;;;;;;;;;5042396;28;20048;-76
2022/04/11 09:00:22;;;;;;;5.47;1.13;;;;;;;;;;5041851;28;20026;-76
2022/04/11 09:02:48;;;;;;;1.45;0.80;;;;;;;;;;5041714;28;20509;-76
2022/04/11 09:05:20;;;;;;;3.15;0.80;;;;;;;;;;5039684;28;20057;-74
2022/04/11 09:07:52;;;;;;;3.72;0.80;;;;;;;;;;5041506;28;20120;-75
2022/04/11 09:10:30;;;;;;;2.17;0.60;;;;;;;;;;5039843;28;20461;-76
2022/04/11 09:12:57;;;;;;;2.47;0.60;;;;;;;;;;5040786;28;20032;-75
2022/04/11 09:15:25;;;;;;;2.72;0.88;;;;;;;;;;5041453;28;20083;-75
2022/04/11 09:17:51;;;;;;;1.15;0.68;;;;;;;;;;5039253;28;20025;-75
2022/04/11 09:20:24;;;;;;;0.93;0.50;;;;;;;;;;5039570;28;20017;-75
2022/04/11 09:22:50;;;;;;;1.98;0.82;;;;;;;;;;5042904;28;20034;-75
2022/04/11 09:25:20;;;;;;;0.57;0.40;;;;;;;;;;5041584;28;20108;-75
2022/04/11 09:27:46;;;;;;;1.33;0.50;;;;;;;;;;5039446;28;20025;-75
2022/04/11 09:30:23;;;;;;;1.27;0.73;;;;;;;;;;5038940;28;20021;-75
2022/04/11 09:32:57;;;;;;;4.90;0.88;;;;;;;;;;5040643;28;20053;-75
2022/04/11 09:35:23;;;;;;;;;;;;;;;;;;5040197;28;20068;-76
2022/04/11 09:38:06;;;;;;;1.67;0.70;;;;;;;;;;5040753;28;19909;-75
2022/04/11 09:40:48;;;;;;;1.60;0.63;;;;;;;;;;5041196;28;20021;-75
2022/04/11 09:43:15;;;;;;;1.08;0.70;;;;;;;;;;5041702;28;20033;-76
2022/04/11 09:45:41;;;;;;;2.60;0.85;;;;;;;;;;5040726;28;20053;-77
2022/04/11 09:48:08;;;;;;;1.73;0.90;;;;;;;;;;5047941;28;20037;-75
2022/04/11 09:50:34;;;;;;;3.38;1.00;;;;;;;;;;5045825;28;20037;-75
2022/04/11 09:53:32;;;;;;;1.17;0.70;;;;;;;;;;5046231;28;20071;-75
2022/04/11 09:56:02;;;;;;;2.70;0.60;;;;;;;;;;5033173;28;20461;-76
2022/04/11 09:58:28;;;;;;;0.98;0.68;;;;;;;;;;5038688;28;20029;-76
2022/04/11 10:00:54;;;;;;;2.47;0.80;;;;;;;;;;5040088;28;20041;-77
2022/04/11 10:03:22;;;;;;;2.50;0.85;;;;;;;;;;5039284;28;20025;-76
2022/04/11 10:05:49;;;;;;;1.38;0.70;;;;;;;;;;5040449;28;20021;-76
2022/04/11 10:08:14;;;;;;;2.22;0.47;;;;;;;;;;5037940;28;20025;-76
2022/04/11 10:10:41;;;;;;;4.80;0.77;;;;;;;;;;5039064;28;20028;-76
2022/04/11 10:13:09;;;;;;;4.43;0.90;;;;;;;;;;5039291;28;20021;-75
2022/04/11 10:15:36;;;;;;;1.15;0.75;;;;;;;;;;5039625;28;20032;-76
2022/04/11 10:18:02;;;;;;;1.27;0.60;;;;;;;;;;5039593;28;20465;-76
2022/04/11 10:20:29;;;;;;;4.00;0.75;;;;;;;;;;5039242;28;20029;-76
2022/04/11 10:23:02;;;;;;;3.00;0.80;;;;;;;;;;5041444;28;20036;-75
2022/04/11 10:25:30;;;;;;;2.90;0.88;;;;;;;;;;5044396;28;20021;-75
2022/04/11 10:28:13;;;;;;;1.75;0.90;;;;;;;;;;5040508;28;20025;-75
2022/04/11 10:30:38;;;;;;;2.47;1.10;;;;;;;;;;5039876;28;20104;-75
2022/04/11 10:33:04;;;;;;;4.07;1.10;;;;;;;;;;5039884;28;20768;-75
2022/04/11 10:35:38;;;;;;;4.20;1.02;;;;;;;;;;5039841;28;20487;-75
2022/04/11 10:38:05;;;;;;;3.47;0.80;;;;;;;;;;5040526;28;20120;-75
2022/04/11 10:40:31;;;;;;;1.83;0.73;;;;;;;;;;5040439;28;20538;-76
2022/04/11 10:42:59;;;;;;;1.33;0.80;;;;;;;;;;5040523;28;20053;-76
2022/04/11 10:45:34;;;;;;;2.22;1.08;;;;;;;;;;5039346;28;20035;-75
2022/04/11 10:47:59;;;;;;;2.10;0.80;;;;;;;;;;5039915;28;20037;-75
2022/04/11 10:50:32;;;;;;;4.50;0.65;;;;;;;;;;5040088;28;20075;-75
2022/04/11 10:53:09;;;;;;;1.17;0.52;;;;;;;;;;5038463;28;20096;-75
2022/04/11 10:55:35;;;;;;;1.45;0.95;;;;;;;;;;5040296;28;20025;-76
2022/04/11 10:58:02;;;;;;;1.77;0.63;;;;;;;;;;5040370;28;20029;-76
2022/04/11 11:00:31;;;;;;;0.68;0.60;;;;;;;;;;5040257;28;20391;-76
2022/04/11 11:02:57;;;;;;;0.80;0.60;;;;;;;;;;5040131;28;20108;-75
2022/04/11 11:05:58;;;;;;;1.20;0.85;;;;;;;;;;5039212;28;20022;-76
2022/04/11 11:08:25;;;;;;;2.08;0.88;;;;;;;;;;5029124;28;20051;-75
2022/04/11 11:10:57;;;;;;;2.72;0.80;;;;;;;;;;5039629;28;20032;-75
2022/04/11 11:13:34;;;;;;;2.75;0.80;;;;;;;;;;5040377;28;20048;-76
2022/04/11 11:16:21;;;;;;;1.25;0.70;;;;;;;;;;5039314;28;20026;-75
2022/04/11 11:18:46;;;;;;;1.23;0.60;;;;;;;;;;5038904;28;20030;-75
2022/04/11 11:21:15;;;;;;;0.70;0.60;;;;;;;;;;5041388;28;20382;-75
2022/04/11 11:23:41;;;;;;;1.23;0.80;;;;;;;;;;5038376;28;20025;-75
2022/04/11 11:26:12;;;;;;;1.70;0.80;;;;;;;;;;5037263;28;20094;-75
2022/04/11 11:28:40;;;;;;;1.30;0.75;;;;;;;;;;5038115;28;20074;-76
2022/04/11 11:31:06;;;;;;;2.33;0.70;;;;;;;;;;5037472;28;20021;-75
2022/04/11 11:33:31;;;;;;;1.20;0.60;;;;;;;;;;5039090;28;20047;-76
2022/04/11 11:35:56;;;;;;;2.65;0.98;;;;;;;;;;5040256;28;20025;-75
2022/04/11 11:38:23;;;;;;;2.47;0.68;;;;;;;;;;5038448;28;20021;-74
2022/04/11 11:40:57;;;;;;;0.57;0.50;;;;;;;;;;5037295;28;20045;-75
2022/04/11 11:43:24;;;;;;;1.80;0.63;;;;;;;;;;5039034;28;20033;-76
2022/04/11 11:45:50;;;;;;;1.90;0.50;;;;;;;;;;5038487;28;20021;-74
2022/04/11 11:48:29;;;;;;;1.10;0.55;;;;;;;;;;5038334;28;20028;-75
2022/04/11 11:50:58;;;;;;;1.67;0.60;;;;;;;;;;5039911;28;20029;-76
2022/04/11 11:53:25;;;;;;;3.00;0.60;;;;;;;;;;5039518;28;20048;-76
2022/04/11 11:55:55;;;;;;;0.93;0.50;;;;;;;;;;5041097;28;20026;-74
2022/04/11 11:58:21;;;;;;;1.33;0.90;;;;;;;;;;5040048;28;20029;-75
2022/04/11 12:00:48;;;;;;;1.00;0.68;;;;;;;;;;5037321;28;20029;-76
2022/04/11 12:06:03;;;;;;;2.90;0.80;;;;;;;;;;5038451;28;20068;-75
2022/04/11 12:08:30;;;;;;;2.92;0.77;;;;;;;;;;5039858;28;20124;-75
2022/04/11 12:10:59;;;;;;;0.82;0.68;;;;;;;;;;5038629;28;20058;-75
2022/04/11 12:13:29;;;;;;;2.35;0.68;;;;;;;;;;5039588;28;20029;-75
2022/04/11 12:16:09;;;;;;;2.63;1.08;;;;;;;;;;5037442;28;20521;-75
2022/04/11 12:19:05;;;;;;;1.80;0.80;;;;;;;;;;5037023;28;20021;-75
2022/04/11 12:21:34;;;;;;;1.73;0.93;;;;;;;;;;5032460;28;20072;-75
2022/04/11 12:24:01;;;;;;;4.90;0.75;;;;;;;;;;5037090;28;20101;-75
2022/04/11 12:26:29;;;;;;;1.92;0.70;;;;;;;;;;5036088;28;20029;-75
2022/04/11 12:28:56;;;;;;;1.73;0.70;;;;;;;;;;5037830;28;20025;-75
2022/04/11 12:31:22;;;;;;;2.22;0.80;;;;;;;;;;5036701;28;20089;-75
2022/04/11 12:33:50;;;;;;;1.30;0.85;;;;;;;;;;5037004;28;20107;-75
2022/04/11 12:36:22;;;;;;;2.75;1.00;;;;;;;;;;5036023;28;20044;-75
2022/04/11 12:38:52;;;;;;;1.08;0.80;;;;;;;;;;5037450;28;20022;-76
2022/04/11 12:41:40;;;;;;;2.17;1.00;;;;;;;;;;5036639;28;20116;-74
2022/04/11 12:44:13;;;;;;;2.80;0.95;;;;;;;;;;5035344;28;20028;-75
2022/04/11 12:46:47;;;;;;;1.60;1.00;;;;;;;;;;5035690;28;20025;-75
2022/04/11 12:49:15;;;;;;;2.38;0.80;;;;;;;;;;5036657;28;20099;-76
2022/04/11 12:51:41;;;;;;;1.83;0.70;;;;;;;;;;5037999;28;20041;-76
2022/04/11 12:54:08;;;;;;;1.92;1.05;;;;;;;;;;5038406;28;20029;-75
2022/04/11 12:56:37;;;;;;;2.22;0.90;;;;;;;;;;5037430;28;20132;-75
2022/04/11 12:59:03;;;;;;;1.27;0.80;;;;;;;;;;5036127;28;20482;-75
2022/04/11 13:01:49;;;;;;;3.03;0.88;;;;;;;;;;5037719;28;20025;-75
2022/04/11 13:04:14;;;;;;;1.80;1.00;;;;;;;;;;5037464;28;20056;-76
2022/04/11 13:06:39;;;;;;;3.33;1.10;;;;;;;;;;5036979;28;20021;-75
2022/04/11 13:09:04;;;;;;;3.37;0.90;;;;;;;;;;5035354;28;20025;-75
2022/04/11 13:11:30;;;;;;;2.03;0.98;;;;;;;;;;5036228;28;20269;-75
2022/04/11 13:13:55;;;;;;;2.85;0.90;;;;;;;;;;5037058;28;20034;-75
2022/04/11 13:19:04;;;;;;;4.85;1.00;;;;;;;;;;5040561;28;20548;-74
2022/04/11 13:21:29;;;;;;;1.73;0.90;;;;;;;;;;5040462;28;20030;-75
2022/04/11 13:23:54;;;;;;;1.70;0.95;;;;;;;;;;5040615;28;20029;-76
2022/04/11 13:26:20;;;;;;;1.77;0.93;;;;;;;;;;5040525;28;20036;-75
2022/04/11 13:28:45;;;;;;;2.85;0.90;;;;;;;;;;5041090;28;20255;-75
2022/04/11 13:31:10;;;;;;;1.33;0.90;;;;;;;;;;5040177;28;20083;-75
2022/04/11 13:33:35;;;;;;;4.33;1.07;;;;;;;;;;5038463;28;20290;-75
2022/04/11 13:36:01;;;;;;;2.00;0.95;;;;;;;;;;5039774;28;20341;-76
2022/04/11 13:38:26;;;;;;;2.00;0.98;;;;;;;;;;5039855;28;20032;-74
2022/04/11 13:40:52;;;;;;;4.18;1.20;;;;;;;;;;5039765;28;20467;-76
2022/04/11 13:43:17;;;;;;;2.25;0.80;;;;;;;;;;5040770;28;20021;-74
2022/04/11 13:45:42;;;;;;;2.70;1.10;;;;;;;;;;5038366;28;20029;-74
2022/04/11 13:48:09;;;;;;;1.90;0.93;;;;;;;;;;5038920;28;20271;-74
2022/04/11 13:50:34;;;;;;;4.28;1.10;;;;;;;;;;5040071;28;20021;-75
2022/04/11 13:52:59;;;;;;;2.30;1.00;;;;;;;;;;5040293;28;20057;-75
2022/04/11 13:55:25;;;;;;;3.45;0.90;;;;;;;;;;5040378;28;20279;-75
2022/04/11 13:57:50;;;;;;;3.28;1.27;;;;;;;;;;5039768;28;20032;-75
2022/04/11 14:00:15;;;;;;;1.90;0.90;;;;;;;;;;5041245;28;20064;-74
2022/04/11 14:02:41;;;;;;;1.63;0.90;;;;;;;;;;5040996;28;20038;-75
2022/04/11 14:05:07;;;;;;;2.00;0.90;;;;;;;;;;5039867;28;20017;-75
2022/04/11 14:07:32;;;;;;;1.92;0.95;;;;;;;;;;5037436;28;20278;-76
2022/04/11 14:09:57;;;;;;;1.93;1.10;;;;;;;;;;5037521;28;20029;-75
2022/04/11 14:12:22;;;;;;;2.03;1.00;;;;;;;;;;5038551;28;20286;-75
2022/04/11 14:14:48;;;;;;;2.03;1.00;;;;;;;;;;5038168;28;20066;-74
2022/04/11 14:17:13;;;;;;;2.60;0.98;;;;;;;;;;5038699;28;20250;-77
2022/04/11 14:19:38;;;;;;;1.48;0.90;;;;;;;;;;5038967;28;20037;-75
2022/04/11 14:22:04;;;;;;;2.65;1.00;;;;;;;;;;5038858;28;20025;-75
2022/04/11 14:24:29;;;;;;;2.45;0.90;;;;;;;;;;5038495;28;20048;-75
2022/04/11 14:26:54;;;;;;;1.23;0.90;;;;;;;;;;5038334;28;20028;-75
2022/04/11 14:29:19;;;;;;;3.30;0.97;;;;;;;;;;5036569;28;20263;-75
2022/04/11 14:31:45;;;;;;;3.27;1.20;;;;;;;;;;5037275;28;20342;-75
2022/04/11 14:34:10;;;;;;;2.08;1.05;;;;;;;;;;5038700;28;20298;-76
2022/04/11 14:36:35;;;;;;;3.35;0.95;;;;;;;;;;5037607;28;20079;-74
2022/04/11 14:39:00;;;;;;;2.90;1.20;;;;;;;;;;5039085;28;20536;-74
2022/04/11 14:41:26;;;;;;;1.97;1.03;;;;;;;;;;5038618;28;20033;-74
2022/04/11 14:43:51;;;;;;;3.90;1.00;;;;;;;;;;5038028;28;20250;-74
2022/04/11 14:46:16;;;;;;;1.53;0.90;;;;;;;;;;5038023;28;20057;-74